createdAt,value
2022-12-23T07:51:41.797Z,28.98
2022-12-23T07:54:12.377Z,27.33
2022-12-23T07:56:40.272Z,27.55
2022-12-23T07:59:07.966Z,27.58
2022-12-23T08:01:35.791Z,26.58
2022-12-23T08:04:12.266Z,27.42
2022-12-23T08:06:41.529Z,26.83
2022-12-23T08:09:10.390Z,25.77
2022-12-23T08:11:37.944Z,26.48
2022-12-23T08:14:05.460Z,30.05
2022-12-23T08:16:36.626Z,27.10
2022-12-23T08:19:09.137Z,28.52
2022-12-23T08:21:36.659Z,27.15
2022-12-23T08:24:06.057Z,26.55
2022-12-23T08:26:34.023Z,26.33
2022-12-23T08:29:01.947Z,25.85
2022-12-23T08:31:32.995Z,24.30
2022-12-23T08:34:01.745Z,26.20
2022-12-23T08:36:30.156Z,24.08
2022-12-23T08:38:58.680Z,23.23
2022-12-23T08:41:31.141Z,24.33
2022-12-23T08:43:58.929Z,24.77
2022-12-23T08:46:26.780Z,22.67
2022-12-23T08:48:54.944Z,25.13
2022-12-23T08:51:23.624Z,24.17
2022-12-23T08:53:56.272Z,23.83
2022-12-23T08:56:30.133Z,24.40
2022-12-23T08:58:58.033Z,24.85
2022-12-23T09:01:26.874Z,25.17
2022-12-23T09:04:01.202Z,24.15
2022-12-23T09:06:30.647Z,23.77
2022-12-23T09:08:58.193Z,24.17
2022-12-23T09:11:26.551Z,22.45
2022-12-23T09:13:55.461Z,22.80
2022-12-23T09:16:23.616Z,23.85
2022-12-23T09:18:51.719Z,22.30
2022-12-23T09:21:20.051Z,21.73
2022-12-23T09:23:48.908Z,21.40
2022-12-23T09:26:18.489Z,21.90
2022-12-23T09:28:46.163Z,22.23
2022-12-23T09:31:15.602Z,22.38
2022-12-23T09:33:43.439Z,24.15
2022-12-23T09:36:11.038Z,23.33
2022-12-23T09:38:38.824Z,24.92
2022-12-23T09:41:13.871Z,24.08
2022-12-23T09:43:45.667Z,22.02
2022-12-23T09:46:15.586Z,23.52
2022-12-23T09:48:50.086Z,22.70
2022-12-23T09:51:20.523Z,22.73
2022-12-23T09:53:53.689Z,22.13
2022-12-23T09:56:26.291Z,22.92
2022-12-23T09:59:02.121Z,22.77
2022-12-23T10:01:32.692Z,22.30
2022-12-23T10:04:24.483Z,21.27
2022-12-23T10:06:59.353Z,24.75
2022-12-23T10:09:31.168Z,23.42
2022-12-23T10:11:59.803Z,23.67
2022-12-23T10:14:31.344Z,23.60
2022-12-23T10:17:00.218Z,23.92
2022-12-23T10:19:29.973Z,22.73
2022-12-23T10:22:07.630Z,26.30
2022-12-23T10:24:37.768Z,25.30
2022-12-23T10:27:07.574Z,25.33
2022-12-23T10:29:35.975Z,23.98
2022-12-23T10:32:08.695Z,23.13
2022-12-23T10:34:40.830Z,26.88
2022-12-23T10:37:13.126Z,24.65
2022-12-23T10:39:45.403Z,25.48
2022-12-23T10:42:17.852Z,25.38
2022-12-23T10:44:51.960Z,26.58
2022-12-23T10:47:25.202Z,24.20
2022-12-23T10:49:57.136Z,24.87
2022-12-23T10:52:28.755Z,26.15
2022-12-23T10:54:56.404Z,25.27
2022-12-23T10:57:24.882Z,23.77
2022-12-23T10:59:52.929Z,25.65
2022-12-23T11:02:34.233Z,25.92
2022-12-23T11:05:02.652Z,24.58
2022-12-23T11:07:47.351Z,22.90
2022-12-23T11:12:45.829Z,22.40
2022-12-23T11:15:26.531Z,22.90
2022-12-23T11:18:01.735Z,24.05
2022-12-23T11:20:29.601Z,22.95
2022-12-23T11:23:02.631Z,23.27
2022-12-23T11:25:32.339Z,23.83
2022-12-23T11:28:00.947Z,25.42
2022-12-23T11:30:39.666Z,24.60
2022-12-23T11:33:07.744Z,23.60
2022-12-23T11:35:37.447Z,26.52
2022-12-23T11:38:13.797Z,25.45
2022-12-23T11:40:41.524Z,26.10
2022-12-23T11:43:14.389Z,26.35
2022-12-23T11:45:42.201Z,27.27
2022-12-23T11:48:28.124Z,27.33
2022-12-23T11:50:59.668Z,26.33
2022-12-23T11:53:29.216Z,27.10
2022-12-23T11:56:00.192Z,27.05
2022-12-23T11:58:31.829Z,30.25
2022-12-23T12:01:02.568Z,29.30
2022-12-23T12:03:35.990Z,28.60
2022-12-23T12:06:06.379Z,28.27
2022-12-23T12:08:42.258Z,28.15
2022-12-23T12:11:14.729Z,23.08
2022-12-23T13:34:27.838Z,31.42
2022-12-23T13:37:00.661Z,29.00
2022-12-23T13:39:32.590Z,31.50
2022-12-23T13:42:05.750Z,30.85
2022-12-23T13:44:34.931Z,31.52
2022-12-23T13:47:07.490Z,31.27
2022-12-23T13:49:45.866Z,30.13
2022-12-23T13:52:16.045Z,31.65
2022-12-23T13:54:49.416Z,31.38
2022-12-23T13:57:22.137Z,32.85
2022-12-23T14:00:04.636Z,30.00
2022-12-23T14:02:44.685Z,32.47
2022-12-23T14:05:33.641Z,31.05
2022-12-23T14:08:02.352Z,32.35
2022-12-23T14:10:30.414Z,32.83
2022-12-23T14:13:03.529Z,35.00
2022-12-23T14:15:55.216Z,30.65
2022-12-23T14:18:30.229Z,32.08
2022-12-23T14:21:05.870Z,32.60
2022-12-23T14:23:38.245Z,32.90
2022-12-23T14:26:15.530Z,33.10
2022-12-23T14:28:52.088Z,33.13
2022-12-23T14:31:34.480Z,32.08
2022-12-23T14:34:06.695Z,34.17
2022-12-23T14:36:35.829Z,36.35
2022-12-23T14:39:23.353Z,36.95
2022-12-23T14:41:57.565Z,36.33
2022-12-23T14:44:45.825Z,37.08
2022-12-23T14:47:40.325Z,38.65
2022-12-23T14:50:26.947Z,39.17
2022-12-23T14:53:02.533Z,41.65
2022-12-23T14:55:49.795Z,38.08
2022-12-23T14:58:53.279Z,40.05
2022-12-23T15:01:23.927Z,40.80
2022-12-23T15:04:00.786Z,40.88
2022-12-23T15:06:33.469Z,38.95
2022-12-23T15:09:03.029Z,37.72
2022-12-23T15:11:31.982Z,38.08
2022-12-23T15:14:01.767Z,36.25
2022-12-23T15:16:35.577Z,35.65
2022-12-23T15:19:07.249Z,37.67
2022-12-23T15:21:36.272Z,34.95
2022-12-23T15:24:05.800Z,37.55
2022-12-23T15:26:33.697Z,35.30
2022-12-23T15:29:03.723Z,36.72
2022-12-23T15:31:45.878Z,34.60
2022-12-23T15:34:18.770Z,32.47
2022-12-23T15:36:46.947Z,35.58
2022-12-23T15:39:21.065Z,35.22
2022-12-23T15:41:49.252Z,34.80
2022-12-23T15:44:19.666Z,34.75
2022-12-23T15:46:47.709Z,34.15
2022-12-23T15:49:15.293Z,34.50
2022-12-23T15:54:34.971Z,33.65
2022-12-23T15:57:03.876Z,31.60
2022-12-23T15:59:34.002Z,33.60
2022-12-23T16:02:32.640Z,33.63
2022-12-23T16:05:00.533Z,36.03
2022-12-23T16:07:34.565Z,33.10
2022-12-23T16:10:09.918Z,33.22
2022-12-23T16:12:39.075Z,34.88
2022-12-23T16:15:20.542Z,33.65
2022-12-23T16:17:51.971Z,32.00
2022-12-23T16:20:26.630Z,35.45
2022-12-23T16:23:02.261Z,33.13
2022-12-23T16:25:38.836Z,34.95
2022-12-23T16:28:08.257Z,32.70
2022-12-23T16:30:36.833Z,36.75
2022-12-23T16:33:06.888Z,34.38
2022-12-23T16:35:37.175Z,35.97
2022-12-23T16:38:15.841Z,37.72
2022-12-23T16:40:45.972Z,37.45
2022-12-23T16:43:13.929Z,36.00
2022-12-23T16:45:42.189Z,37.53
2022-12-23T16:48:11.876Z,38.50
2022-12-23T16:50:39.510Z,37.65
2022-12-23T16:53:07.001Z,38.63
2022-12-23T16:55:34.624Z,37.13
2022-12-23T16:58:06.143Z,37.30
2022-12-23T17:00:34.006Z,38.17
2022-12-23T17:03:03.004Z,37.92
2022-12-23T17:05:30.512Z,35.22
2022-12-23T17:08:10.369Z,37.00
2022-12-23T17:10:37.943Z,38.38
2022-12-23T17:13:06.931Z,36.30
2022-12-23T17:15:34.715Z,36.53
2022-12-23T17:18:02.248Z,39.15
2022-12-23T17:20:29.884Z,40.28
2022-12-23T17:22:59.513Z,38.47
2022-12-23T17:25:38.158Z,35.85
2022-12-23T17:28:11.237Z,35.58
2022-12-23T17:30:40.984Z,36.15
2022-12-23T17:33:15.937Z,37.10
2022-12-23T17:35:43.441Z,38.00
2022-12-23T17:38:16.305Z,37.80
2022-12-23T17:40:44.578Z,37.20
2022-12-23T17:43:14.538Z,37.05
2022-12-23T17:45:42.522Z,37.28
2022-12-23T17:48:16.310Z,37.25
2022-12-23T17:50:47.803Z,35.30
2022-12-23T17:53:17.335Z,35.63
2022-12-23T17:55:45.360Z,34.58
2022-12-23T17:58:15.377Z,34.03
2022-12-23T18:00:43.102Z,35.67
2022-12-23T18:03:39.451Z,33.20
2022-12-23T18:06:10.209Z,35.45
2022-12-23T18:08:37.808Z,36.83
2022-12-23T18:11:06.126Z,38.75
2022-12-23T18:13:35.785Z,36.10
2022-12-23T18:16:04.498Z,37.17
2022-12-23T18:18:43.764Z,35.45
2022-12-23T18:21:15.051Z,34.67
2022-12-23T18:23:43.073Z,35.00
2022-12-23T18:26:11.876Z,35.10
2022-12-23T18:28:40.910Z,35.25
2022-12-23T18:31:50.211Z,33.75
2022-12-23T18:34:27.116Z,33.10
2022-12-23T18:36:58.322Z,33.33
2022-12-23T18:39:31.511Z,36.45
2022-12-23T18:41:59.103Z,35.83
2022-12-23T18:44:35.258Z,34.03
2022-12-23T18:47:02.811Z,32.78
2022-12-23T18:49:30.368Z,34.80
2022-12-23T18:52:00.371Z,33.72
2022-12-23T18:54:28.136Z,33.80
2022-12-23T18:57:04.340Z,32.05
2022-12-23T18:59:36.216Z,32.75
2022-12-23T19:02:03.908Z,33.97
2022-12-23T19:04:33.455Z,33.83
2022-12-23T19:07:01.076Z,33.58
2022-12-23T19:09:31.084Z,33.55
2022-12-23T19:11:59.017Z,31.38
2022-12-23T19:14:26.765Z,32.72
2022-12-23T19:17:04.854Z,33.75
2022-12-23T19:19:32.555Z,32.53
2022-12-23T19:22:00.215Z,33.63
2022-12-23T19:24:27.747Z,32.95
2022-12-23T19:26:55.335Z,32.63
2022-12-23T19:29:22.867Z,33.25
2022-12-23T19:31:50.424Z,33.47
2022-12-23T19:34:20.083Z,32.78
2022-12-23T19:36:51.343Z,32.97
2022-12-23T19:39:21.882Z,34.22
2022-12-23T19:41:52.603Z,34.58
2022-12-23T19:44:20.133Z,33.97
2022-12-23T19:46:47.746Z,32.95
2022-12-23T19:49:20.102Z,33.90
2022-12-23T19:51:49.596Z,36.72
2022-12-23T19:54:17.542Z,32.67
2022-12-23T19:56:45.492Z,33.08
2022-12-23T19:59:13.143Z,34.63
2022-12-23T20:01:43.476Z,35.38
2022-12-23T20:04:13.164Z,34.90
2022-12-23T20:06:41.151Z,35.78
2022-12-23T20:09:11.198Z,35.17
2022-12-23T20:11:39.983Z,36.05
2022-12-23T20:14:07.856Z,37.35
2022-12-23T20:16:36.163Z,34.35
2022-12-23T20:19:04.131Z,35.25
2022-12-23T20:21:31.658Z,34.10
2022-12-23T20:24:01.191Z,32.22
2022-12-23T20:26:31.222Z,34.58
2022-12-23T20:31:46.385Z,34.40
2022-12-23T20:34:18.717Z,34.45
2022-12-23T20:36:47.263Z,32.85
2022-12-23T20:39:16.819Z,34.67
2022-12-23T20:41:45.853Z,33.65
2022-12-23T20:47:08.256Z,33.95
2022-12-23T20:49:40.509Z,33.03
2022-12-23T20:52:11.918Z,34.38
2022-12-23T20:54:42.457Z,33.10
2022-12-23T20:57:11.300Z,35.28
2022-12-23T20:59:38.867Z,33.70
2022-12-23T21:02:07.353Z,35.67
2022-12-23T21:04:38.251Z,34.83
2022-12-23T21:07:05.762Z,34.55
2022-12-23T21:09:36.564Z,35.03
2022-12-23T21:12:04.517Z,36.60
2022-12-23T21:14:35.926Z,34.22
2022-12-23T21:17:03.649Z,35.33
2022-12-23T21:19:36.338Z,34.63
2022-12-23T21:22:04.309Z,35.15
2022-12-23T21:24:31.801Z,35.33
2022-12-23T21:26:59.359Z,36.38
2022-12-23T21:29:27.293Z,36.53
2022-12-23T21:31:56.420Z,34.40
2022-12-23T21:34:24.224Z,37.05
2022-12-23T21:36:51.881Z,36.30
2022-12-23T21:39:19.876Z,34.63
2022-12-23T21:41:51.530Z,34.67
2022-12-23T21:44:19.719Z,36.35
2022-12-23T21:46:47.344Z,36.53
2022-12-23T21:49:16.785Z,37.25
2022-12-23T21:51:44.405Z,35.80
2022-12-23T21:57:01.677Z,35.92
2022-12-23T21:59:34.750Z,37.25
2022-12-23T22:02:09.693Z,35.05
2022-12-23T22:04:42.221Z,36.50
2022-12-23T22:07:09.736Z,34.65
2022-12-23T22:09:39.223Z,34.78
2022-12-23T22:12:06.835Z,35.03
2022-12-23T22:14:50.361Z,35.95
2022-12-23T22:17:21.055Z,33.70
2022-12-23T22:19:57.423Z,35.35
2022-12-23T22:22:31.649Z,33.60
2022-12-23T22:27:30.704Z,34.33
2022-12-23T22:30:00.726Z,35.63
2022-12-23T22:32:29.388Z,38.28
2022-12-23T22:34:58.628Z,37.42
2022-12-23T22:37:27.931Z,36.22
2022-12-23T22:39:55.736Z,34.28
2022-12-23T22:42:23.357Z,34.10
2022-12-23T22:44:51.100Z,36.50
2022-12-23T22:47:19.942Z,37.85
2022-12-23T22:49:47.622Z,33.85
2022-12-23T22:52:17.641Z,37.75
2022-12-23T22:54:45.492Z,35.63
2022-12-23T22:57:13.041Z,37.55
2022-12-23T22:59:40.751Z,36.88
2022-12-23T23:02:11.546Z,36.42
2022-12-23T23:04:39.339Z,34.60
2022-12-23T23:07:08.273Z,36.10
2022-12-23T23:09:39.019Z,37.47
2022-12-23T23:12:08.217Z,35.38
2022-12-23T23:14:52.081Z,35.83
2022-12-23T23:17:20.063Z,36.05
2022-12-23T23:19:47.672Z,35.70
2022-12-23T23:22:15.762Z,34.65
2022-12-23T23:24:51.850Z,34.13
2022-12-23T23:27:22.057Z,35.40
2022-12-23T23:29:49.714Z,37.40
2022-12-23T23:32:22.098Z,34.60
2022-12-23T23:34:52.332Z,33.78
2022-12-23T23:37:25.159Z,34.42
2022-12-23T23:39:54.235Z,33.97
2022-12-23T23:42:23.873Z,34.55
2022-12-23T23:44:55.287Z,32.33
2022-12-23T23:47:22.990Z,34.15
2022-12-23T23:49:50.808Z,33.35
2022-12-23T23:52:18.312Z,34.38
2022-12-23T23:54:45.890Z,34.47
2022-12-23T23:57:16.527Z,32.60
2022-12-23T23:59:44.144Z,34.17
